Time;durP1;ratioP1;P1;durP2;ratioP2;P2;SDS_P1;SDS_P2;PMS_P1;PMS_P2;Temp;Humidity;BMP_temperature;BMP_pressure;BME280_temperature;BME280_humidity;BME280_pressure;Samples;Min_cycle;Max_cycle;Signal;HPM_P1;HPM_P2
2022/05/28 00:01:37;;;;;;;16.17;2.30;;;11.90;99.90;;;;;;4972939;28;20051;-82
2022/05/28 00:04:05;;;;;;;19.08;2.25;;;11.90;99.90;;;;;;4974554;28;20054;-81
2022/05/28 00:06:32;;;;;;;10.65;2.20;;;11.80;99.90;;;;;;4975011;28;20494;-81
2022/05/28 00:08:59;;;;;;;10.73;1.80;;;11.80;99.90;;;;;;4977396;28;20838;-84
2022/05/28 00:11:30;;;;;;;17.13;2.47;;;11.80;99.90;;;;;;4980356;28;20050;-82
2022/05/28 00:13:56;;;;;;;12.63;1.92;;;11.80;99.90;;;;;;4957385;28;20058;-81
2022/05/28 00:16:22;;;;;;;14.23;2.13;;;11.80;99.90;;;;;;4957072;28;20506;-83
2022/05/28 00:18:51;;;;;;;12.80;2.78;;;11.70;99.90;;;;;;4971831;28;20050;-83
2022/05/28 00:21:19;;;;;;;10.60;2.22;;;11.70;99.90;;;;;;4957648;28;20050;-88
2022/05/28 00:23:45;;;;;;;10.35;1.92;;;11.70;99.90;;;;;;4974710;28;20125;-83
2022/05/28 00:26:12;;;;;;;8.18;1.67;;;11.70;99.90;;;;;;4974637;28;20051;-80
2022/05/28 00:28:38;;;;;;;16.65;2.75;;;11.60;99.90;;;;;;4959078;28;20055;-82
2022/05/28 00:31:04;;;;;;;10.27;2.10;;;11.60;99.90;;;;;;4981495;28;20131;-81
2022/05/28 00:33:30;;;;;;;14.18;4.10;;;11.60;99.90;;;;;;4984466;28;20431;-83
2022/05/28 00:35:57;;;;;;;13.40;2.28;;;11.60;99.90;;;;;;4956881;28;20051;-81
2022/05/28 00:38:26;;;;;;;12.52;2.97;;;11.60;99.90;;;;;;4955735;28;20094;-81
2022/05/28 00:40:55;;;;;;;13.80;2.20;;;11.60;99.90;;;;;;4958057;28;20063;-82
2022/05/28 00:43:22;;;;;;;14.80;3.20;;;11.60;99.90;;;;;;4974189;28;20089;-85
2022/05/28 00:45:53;;;;;;;14.45;2.42;;;11.70;99.90;;;;;;4973893;28;20082;-85
2022/05/28 00:48:25;;;;;;;12.32;2.45;;;11.70;99.90;;;;;;4956872;28;20133;-81
2022/05/28 00:50:51;;;;;;;15.75;2.45;;;11.70;99.90;;;;;;4957056;28;20090;-81
2022/05/28 00:53:17;;;;;;;13.52;2.08;;;11.70;99.90;;;;;;4974244;28;20046;-85
2022/05/28 00:55:43;;;;;;;16.73;3.35;;;11.70;99.90;;;;;;4975095;28;20057;-84
2022/05/28 00:58:10;;;;;;;11.20;1.88;;;11.60;99.90;;;;;;4976393;28;20054;-81
2022/05/28 01:00:37;;;;;;;12.98;2.10;;;11.70;99.90;;;;;;4972814;28;20105;-83
2022/05/28 01:03:12;;;;;;;11.10;1.75;;;11.70;99.90;;;;;;4957643;28;20051;-83
2022/05/28 01:05:54;;;;;;;10.10;1.88;;;11.70;99.90;;;;;;4958835;28;20055;-80
2022/05/28 01:08:38;;;;;;;16.58;3.13;;;11.70;99.90;;;;;;4974014;28;20050;-80
2022/05/28 01:11:36;;;;;;;17.30;2.65;;;11.80;99.90;;;;;;4958911;28;20059;-82
2022/05/28 01:14:24;;;;;;;12.93;2.92;;;11.70;99.90;;;;;;4958550;28;20058;-79
2022/05/28 01:16:54;;;;;;;13.25;2.30;;;11.70;99.90;;;;;;4973471;28;20058;-88
2022/05/28 01:19:59;;;;;;;15.40;2.50;;;11.60;99.90;;;;;;4972621;28;20093;-81
2022/05/28 01:22:40;;;;;;;17.40;3.42;;;11.60;99.90;;;;;;4948599;28;20098;-82
2022/05/28 01:25:48;;;;;;;15.82;2.50;;;11.60;99.90;;;;;;4971392;28;20070;-81
2022/05/28 01:28:17;;;;;;;9.07;2.35;;;11.60;99.90;;;;;;4959132;28;20050;-83
2022/05/28 01:30:45;;;;;;;13.80;2.58;;;11.50;99.90;;;;;;4979284;28;20073;-82
2022/05/28 01:33:14;;;;;;;15.88;3.25;;;11.50;99.90;;;;;;4976573;28;20043;-82
2022/05/28 01:35:41;;;;;;;18.40;4.25;;;11.50;99.90;;;;;;4976602;28;20054;-82
2022/05/28 01:38:09;;;;;;;10.98;2.33;;;11.50;99.90;;;;;;4976578;28;20043;-82
2022/05/28 01:40:35;;;;;;;14.60;2.72;;;11.50;99.90;;;;;;4959659;28;20053;-81
2022/05/28 01:43:07;;;;;;;18.67;2.78;;;11.40;99.90;;;;;;4960921;28;20093;-81
2022/05/28 01:45:35;;;;;;;14.70;2.75;;;11.40;99.90;;;;;;4976348;28;20561;-81
2022/05/28 01:48:04;;;;;;;17.58;4.18;;;11.40;99.90;;;;;;4976811;28;20063;-83
2022/05/28 01:50:33;;;;;;;14.13;2.45;;;11.40;99.90;;;;;;4976373;28;20410;-81
2022/05/28 01:53:04;;;;;;;14.27;2.85;;;11.40;99.90;;;;;;4958942;28;20082;-83
2022/05/28 01:55:34;;;;;;;15.90;3.90;;;11.50;99.90;;;;;;4976501;28;20051;-82
2022/05/28 01:58:00;;;;;;;28.05;3.55;;;11.50;99.90;;;;;;4978368;28;20047;-84
2022/05/28 02:00:27;;;;;;;15.63;3.40;;;11.50;99.90;;;;;;4986566;28;20055;-82
2022/05/28 02:02:55;;;;;;;21.95;3.42;;;11.50;99.90;;;;;;4968403;28;20066;-81
2022/05/28 02:05:21;;;;;;;11.20;3.50;;;11.50;99.90;;;;;;4943364;28;20058;-80
2022/05/28 02:07:47;;;;;;;14.55;2.30;;;11.50;99.90;;;;;;4958336;28;20065;-82
2022/05/28 02:10:16;;;;;;;15.60;2.97;;;11.50;99.90;;;;;;4976173;28;20086;-81
2022/05/28 02:13:05;;;;;;;17.83;2.88;;;11.50;99.90;;;;;;4958742;28;20046;-79
2022/05/28 02:15:48;;;;;;;14.88;2.47;;;11.50;99.90;;;;;;4977403;28;20051;-80
2022/05/28 02:18:51;;;;;;;20.65;3.55;;;11.50;99.90;;;;;;4975105;28;20118;-82
2022/05/28 02:21:23;;;;;;;15.88;3.05;;;11.50;99.90;;;;;;4972977;28;20429;-80
2022/05/28 02:24:04;;;;;;;13.27;2.95;;;11.50;99.90;;;;;;4958237;28;20489;-84
2022/05/28 02:26:53;;;;;;;20.98;3.55;;;11.50;99.90;;;;;;4976094;28;20070;-83
2022/05/28 02:29:21;;;;;;;21.15;3.03;;;11.50;99.90;;;;;;4975897;28;20061;-80
2022/05/28 02:31:49;;;;;;;25.08;5.13;;;11.40;99.90;;;;;;4979499;28;20510;-83
2022/05/28 02:34:16;;;;;;;23.52;4.63;;;11.40;99.90;;;;;;4961235;28;20054;-84
2022/05/28 02:36:42;;;;;;;24.00;3.55;;;11.40;99.90;;;;;;4959653;28;20086;-83
2022/05/28 02:39:09;;;;;;;18.52;3.72;;;11.40;99.90;;;;;;4960004;28;20581;-84
2022/05/28 02:41:35;;;;;;;15.00;2.67;;;11.40;99.90;;;;;;4976731;28;20055;-87
2022/05/28 02:44:01;;;;;;;18.40;3.20;;;11.30;99.90;;;;;;4976202;28;20125;-82
2022/05/28 02:46:26;;;;;;;18.17;3.97;;;11.30;99.90;;;;;;4976859;28;20042;-81
2022/05/28 02:48:52;;;;;;;20.77;3.38;;;11.20;99.90;;;;;;4979131;28;20470;-79
2022/05/28 02:51:21;;;;;;;16.38;3.25;;;11.20;99.90;;;;;;4983119;28;20043;-78
2022/05/28 02:53:49;;;;;;;14.98;3.03;;;11.20;99.90;;;;;;4977669;28;20498;-81
2022/05/28 02:56:15;;;;;;;18.50;4.35;;;11.30;99.90;;;;;;4977826;28;20043;-79
2022/05/28 02:58:41;;;;;;;18.73;2.92;;;11.30;99.90;;;;;;4982228;28;20085;-84
2022/05/28 03:01:29;;;;;;;11.27;2.90;;;11.30;99.90;;;;;;4975416;28;20074;-85
2022/05/28 03:03:56;;;;;;;25.08;4.68;;;11.30;99.90;;;;;;4975500;28;20456;-84
2022/05/28 03:06:22;;;;;;;19.40;3.53;;;11.30;99.90;;;;;;4974073;28;20141;-82
2022/05/28 03:08:48;;;;;;;20.17;4.43;;;11.30;99.90;;;;;;4974816;28;20102;-80
2022/05/28 03:11:14;;;;;;;17.25;3.38;;;11.30;99.90;;;;;;4975068;28;20058;-81
2022/05/28 03:13:41;;;;;;;20.38;3.40;;;11.30;99.90;;;;;;4975052;28;20050;-81
2022/05/28 03:16:07;;;;;;;13.75;2.67;;;11.30;99.90;;;;;;4976179;28;20051;-85
2022/05/28 03:18:34;;;;;;;11.43;2.13;;;11.30;99.90;;;;;;4975402;28;20050;-83
2022/05/28 03:21:00;;;;;;;13.90;2.92;;;11.20;99.90;;;;;;4974920;28;20049;-83
2022/05/28 03:23:26;;;;;;;14.23;2.67;;;11.20;99.90;;;;;;4975309;28;20051;-82
2022/05/28 03:25:52;;;;;;;11.38;2.50;;;11.20;99.90;;;;;;4962923;28;20078;-84
2022/05/28 03:28:18;;;;;;;28.45;3.88;;;11.20;99.90;;;;;;4984488;28;20190;-80
2022/05/28 03:30:44;;;;;;;13.82;2.38;;;11.20;99.90;;;;;;4961160;28;20584;-81
2022/05/28 03:33:10;;;;;;;12.18;2.20;;;11.20;99.90;;;;;;4957672;28;20065;-82
2022/05/28 03:35:37;;;;;;;15.10;2.50;;;11.20;99.90;;;;;;4979236;28;20105;-80
2022/05/28 03:38:04;;;;;;;12.18;2.75;;;11.20;99.90;;;;;;4976056;28;20093;-80
2022/05/28 03:40:31;;;;;;;15.73;4.88;;;11.10;99.90;;;;;;4957012;28;20137;-82
2022/05/28 03:42:57;;;;;;;14.43;2.70;;;11.10;99.90;;;;;;4959084;28;20475;-80
2022/05/28 03:45:25;;;;;;;14.40;2.53;;;11.10;99.90;;;;;;4957692;28;20050;-82
2022/05/28 03:47:51;;;;;;;16.88;3.28;;;11.10;99.90;;;;;;4977058;28;20059;-80
2022/05/28 03:50:17;;;;;;;21.30;5.15;;;11.20;99.90;;;;;;4976236;28;20104;-80
2022/05/28 03:52:42;;;;;;;12.18;3.13;;;11.20;99.90;;;;;;4978004;28;20057;-85
2022/05/28 03:55:08;;;;;;;13.90;2.83;;;11.20;99.90;;;;;;4975007;28;20054;-83
2022/05/28 03:57:34;;;;;;;13.73;3.45;;;11.20;99.90;;;;;;4978586;28;20058;-84
2022/05/28 04:00:02;;;;;;;14.23;2.67;;;11.20;99.90;;;;;;4984160;28;20402;-83
2022/05/28 04:02:28;;;;;;;21.25;3.92;;;11.20;99.90;;;;;;4973856;28;20051;-84
2022/05/28 04:04:54;;;;;;;25.98;4.00;;;11.30;99.90;;;;;;4974876;28;20404;-80
2022/05/28 04:07:21;;;;;;;16.85;4.28;;;11.30;99.90;;;;;;4958552;28;20061;-83
2022/05/28 04:09:47;;;;;;;15.80;3.53;;;11.40;99.90;;;;;;4976474;28;20054;-82
2022/05/28 04:12:13;;;;;;;18.25;3.05;;;11.40;99.90;;;;;;4962426;28;20413;-82
2022/05/28 04:14:39;;;;;;;15.68;3.40;;;11.40;99.90;;;;;;4941084;28;20054;-87
2022/05/28 04:17:05;;;;;;;19.25;3.78;;;11.40;99.90;;;;;;4974482;28;20498;-85
2022/05/28 04:19:35;;;;;;;23.80;3.58;;;11.40;99.90;;;;;;4957579;28;20055;-86
2022/05/28 04:22:01;;;;;;;18.67;3.63;;;11.40;99.90;;;;;;4974881;28;20043;-83
2022/05/28 04:24:27;;;;;;;21.98;3.60;;;11.50;99.90;;;;;;4960991;28;20061;-83
2022/05/28 04:26:52;;;;;;;25.38;3.53;;;11.50;99.90;;;;;;4976577;28;20070;-86
2022/05/28 04:29:18;;;;;;;17.60;3.13;;;11.50;99.90;;;;;;4974708;28;20054;-84
2022/05/28 04:31:44;;;;;;;18.02;3.30;;;11.50;99.90;;;;;;4974071;28;20116;-81
2022/05/28 04:34:10;;;;;;;14.43;2.95;;;11.50;99.90;;;;;;4958878;28;20506;-81
2022/05/28 04:36:36;;;;;;;12.65;3.50;;;11.50;99.90;;;;;;4976315;28;20050;-81
2022/05/28 04:39:02;;;;;;;19.00;2.88;;;11.50;99.90;;;;;;4957163;28;20065;-84
2022/05/28 04:41:28;;;;;;;15.90;3.03;;;11.60;99.90;;;;;;4975549;28;20058;-82
2022/05/28 04:43:54;;;;;;;9.07;2.72;;;11.70;99.90;;;;;;4972681;28;20042;-86
2022/05/28 04:46:20;;;;;;;17.17;3.55;;;11.70;99.90;;;;;;4940156;28;20457;-82
2022/05/28 04:48:47;;;;;;;15.43;2.80;;;11.80;99.90;;;;;;4973853;28;20604;-82
2022/05/28 04:51:12;;;;;;;15.70;2.72;;;11.90;99.90;;;;;;4978351;28;20057;-84
2022/05/28 04:53:39;;;;;;;22.05;4.13;;;11.90;99.90;;;;;;4965223;28;20138;-84
2022/05/28 04:56:05;;;;;;;11.98;2.65;;;11.90;99.90;;;;;;4956865;28;20058;-84
2022/05/28 04:58:31;;;;;;;27.40;3.80;;;11.90;99.90;;;;;;4973828;28;20059;-81
2022/05/28 05:00:57;;;;;;;24.58;5.07;;;11.90;99.90;;;;;;4974807;28;20442;-84
2022/05/28 05:03:23;;;;;;;18.23;3.95;;;11.90;99.90;;;;;;4956449;28;20058;-81
2022/05/28 05:05:49;;;;;;;16.90;3.17;;;12.00;99.90;;;;;;4977499;28;20054;-81
2022/05/28 05:08:15;;;;;;;15.80;2.88;;;12.10;99.90;;;;;;4977839;28;20081;-85
2022/05/28 05:10:41;;;;;;;18.15;3.80;;;12.20;99.90;;;;;;4957475;28;20097;-81
2022/05/28 05:13:07;;;;;;;21.40;3.13;;;12.30;99.90;;;;;;4976337;28;20050;-81
2022/05/28 05:15:33;;;;;;;16.08;2.90;;;12.30;99.90;;;;;;4981612;28;20046;-82
2022/05/28 05:17:59;;;;;;;17.55;3.50;;;12.40;99.90;;;;;;4974683;28;20053;-81
2022/05/28 05:20:25;;;;;;;22.73;3.88;;;12.40;99.90;;;;;;4957635;28;20051;-83
2022/05/28 05:22:55;;;;;;;25.73;4.90;;;12.30;99.90;;;;;;4976816;28;20553;-83
2022/05/28 05:25:22;;;;;;;20.77;4.45;;;12.40;99.90;;;;;;4979978;28;20141;-82
2022/05/28 05:27:48;;;;;;;25.63;5.07;;;12.40;99.90;;;;;;4983484;28;20051;-81
2022/05/28 05:30:14;;;;;;;23.38;4.07;;;12.30;99.90;;;;;;4965586;28;20047;-80
2022/05/28 05:32:39;;;;;;;22.90;3.33;;;12.40;99.90;;;;;;4978128;28;20058;-81
2022/05/28 05:35:07;;;;;;;27.67;4.38;;;12.40;99.90;;;;;;4974974;28;20167;-81
2022/05/28 05:37:32;;;;;;;18.17;4.15;;;12.40;99.90;;;;;;4974330;28;20410;-79
2022/05/28 05:39:58;;;;;;;18.95;3.40;;;12.40;99.90;;;;;;4973816;28;20058;-83
2022/05/28 05:42:24;;;;;;;16.83;4.18;;;12.40;99.90;;;;;;4972662;28;20062;-80
2022/05/28 05:44:50;;;;;;;17.42;3.15;;;12.30;99.90;;;;;;4971563;28;20058;-83
2022/05/28 05:47:16;;;;;;;20.08;3.38;;;12.30;99.90;;;;;;4973287;28;20122;-81
2022/05/28 05:49:42;;;;;;;19.88;3.30;;;12.30;99.90;;;;;;4962914;28;20549;-85
2022/05/28 05:52:08;;;;;;;13.65;2.60;;;12.30;99.90;;;;;;4984826;28;20081;-82
2022/05/28 05:54:34;;;;;;;10.57;1.80;;;12.20;99.90;;;;;;4980917;28;20051;-82
2022/05/28 05:57:00;;;;;;;8.77;2.25;;;12.10;99.90;;;;;;4956296;28;20051;-83
2022/05/28 05:59:26;;;;;;;8.00;1.63;;;12.10;99.90;;;;;;4972871;28;20059;-81
2022/05/28 06:01:52;;;;;;;10.60;1.85;;;12.20;99.90;;;;;;4972978;28;20055;-84
2022/05/28 06:04:18;;;;;;;14.38;2.85;;;12.40;99.90;;;;;;4956844;28;20058;-82
2022/05/28 06:06:44;;;;;;;15.32;3.97;;;12.60;99.90;;;;;;4979415;28;20554;-82
2022/05/28 06:09:10;;;;;;;14.23;2.92;;;12.90;99.90;;;;;;4973066;28;20059;-83
2022/05/28 06:11:36;;;;;;;14.57;2.45;;;13.00;99.90;;;;;;4973505;28;20058;-83
2022/05/28 06:14:03;;;;;;;16.67;3.00;;;13.10;99.90;;;;;;4973849;28;20137;-81
2022/05/28 06:16:29;;;;;;;22.15;3.08;;;13.00;99.90;;;;;;4976135;28;20043;-82
2022/05/28 06:18:55;;;;;;;14.60;3.15;;;12.90;99.90;;;;;;4984990;28;20050;-84
2022/05/28 06:21:21;;;;;;;16.65;3.67;;;12.80;99.90;;;;;;4983283;28;20054;-85
2022/05/28 06:23:46;;;;;;;11.90;2.97;;;12.60;99.90;;;;;;4975865;28;20051;-81
2022/05/28 06:26:13;;;;;;;14.38;2.72;;;12.40;99.90;;;;;;4975932;28;20479;-83
2022/05/28 06:28:39;;;;;;;18.98;2.83;;;12.20;99.90;;;;;;4959215;28;20054;-85
2022/05/28 06:31:09;;;;;;;15.07;3.15;;;12.10;99.90;;;;;;4977232;28;20073;-88
2022/05/28 06:33:36;;;;;;;16.58;3.08;;;12.20;99.90;;;;;;4943054;28;20142;-81
2022/05/28 06:36:04;;;;;;;15.52;3.40;;;12.10;99.90;;;;;;4979466;28;20470;-80
2022/05/28 06:38:30;;;;;;;18.52;2.90;;;12.20;99.90;;;;;;4979270;28;20143;-79
2022/05/28 06:40:56;;;;;;;19.90;3.45;;;12.20;99.90;;;;;;4966325;28;20506;-80
2022/05/28 06:43:23;;;;;;;19.27;2.83;;;12.20;99.90;;;;;;4975819;28;20112;-81
2022/05/28 06:45:49;;;;;;;20.80;4.57;;;12.30;99.90;;;;;;4975567;28;20058;-80
2022/05/28 06:48:15;;;;;;;20.90;3.13;;;12.30;99.90;;;;;;4975479;28;20490;-80
2022/05/28 06:53:27;;;;;;;14.80;3.60;;;12.30;99.90;;;;;;4976832;28;20058;-84
2022/05/28 06:55:53;;;;;;;24.23;4.00;;;12.40;99.90;;;;;;4977539;28;20081;-82
2022/05/28 06:58:19;;;;;;;17.88;3.67;;;12.70;99.90;;;;;;4965242;28;20055;-82
2022/05/28 07:00:45;;;;;;;17.27;3.47;;;13.20;99.90;;;;;;4986760;28;20065;-80
2022/05/28 07:03:20;;;;;;;16.17;3.53;;;13.60;99.90;;;;;;4976528;28;20050;-81
2022/05/28 07:05:46;;;;;;;18.75;3.67;;;13.90;99.90;;;;;;4958349;28;20137;-79
2022/05/28 07:08:12;;;;;;;14.98;3.08;;;14.00;99.90;;;;;;4975665;28;20116;-82
2022/05/28 07:10:46;;;;;;;19.08;3.20;;;13.90;99.90;;;;;;4976366;28;20117;-82
2022/05/28 07:13:13;;;;;;;17.42;3.67;;;13.60;99.90;;;;;;4976257;28;20093;-87
2022/05/28 07:15:39;;;;;;;19.25;3.63;;;13.60;99.90;;;;;;4976695;28;20073;-83
2022/05/28 07:18:05;;;;;;;18.92;3.72;;;13.80;99.90;;;;;;4978852;28;20047;-81
2022/05/28 07:20:31;;;;;;;22.45;3.08;;;14.10;99.90;;;;;;4984831;28;20461;-83
2022/05/28 07:22:57;;;;;;;14.95;3.88;;;14.30;99.90;;;;;;4960258;28;20376;-81
2022/05/28 07:25:24;;;;;;;10.93;2.38;;;14.30;99.90;;;;;;4963832;28;20110;-84
2022/05/28 07:27:50;;;;;;;18.50;3.30;;;14.20;99.90;;;;;;4981538;28;20153;-82
2022/05/28 07:30:16;;;;;;;21.23;4.45;;;14.20;99.90;;;;;;4980848;28;20070;-82
2022/05/28 07:32:41;;;;;;;20.92;3.35;;;14.50;99.90;;;;;;4982399;28;20106;-85
2022/05/28 07:35:08;;;;;;;25.17;4.43;;;14.80;99.90;;;;;;4982302;28;20043;-85
2022/05/28 07:37:34;;;;;;;15.77;3.33;;;15.00;99.90;;;;;;4968672;28;20506;-84
2022/05/28 07:40:00;;;;;;;19.73;3.67;;;15.10;99.90;;;;;;4964919;28;20122;-83
2022/05/28 07:42:27;;;;;;;16.88;3.17;;;15.20;99.90;;;;;;4977131;28;20051;-81
2022/05/28 07:44:54;;;;;;;22.50;2.85;;;15.10;99.90;;;;;;4976976;28;20039;-88
2022/05/28 07:47:20;;;;;;;17.15;2.85;;;15.00;99.90;;;;;;4977838;28;20093;-88
2022/05/28 07:49:46;;;;;;;20.20;4.15;;;14.90;99.90;;;;;;4964372;28;20043;-87
2022/05/28 07:52:12;;;;;;;15.05;3.58;;;15.00;99.90;;;;;;4962714;28;20065;-91
2022/05/28 07:54:38;;;;;;;16.95;3.40;;;15.10;99.90;;;;;;4959720;28;20130;-84
2022/05/28 07:57:04;;;;;;;12.93;2.97;;;15.50;99.90;;;;;;4982045;28;20047;-87
2022/05/28 07:59:31;;;;;;;20.33;4.55;;;15.90;99.90;;;;;;4985826;28;20327;-85
2022/05/28 08:01:57;;;;;;;19.63;4.25;;;16.00;99.90;;;;;;4988065;28;20047;-88
2022/05/28 08:04:23;;;;;;;12.13;2.80;;;15.90;98.60;;;;;;4945344;28;20053;-86
2022/05/28 08:06:50;;;;;;;12.73;2.67;;;16.00;99.00;;;;;;4961629;28;20082;-88
2022/05/28 08:09:15;;;;;;;17.55;3.17;;;16.00;99.40;;;;;;4977552;28;20065;-86
2022/05/28 08:11:42;;;;;;;16.63;3.35;;;16.00;99.50;;;;;;4961615;28;20054;-87
2022/05/28 08:14:09;;;;;;;15.48;3.50;;;15.80;99.90;;;;;;4945831;28;20082;-88
2022/05/28 08:16:35;;;;;;;17.73;4.60;;;15.80;99.90;;;;;;4981980;28;20126;-87
2022/05/28 08:19:01;;;;;;;17.35;2.78;;;15.80;99.30;;;;;;4963633;28;20090;-88
2022/05/28 08:24:11;;;;;;;21.08;3.33;;;16.30;99.20;;;;;;4973677;28;20057;-86
2022/05/28 08:26:38;;;;;;;20.83;2.65;;;16.10;98.70;;;;;;4972058;28;20074;-87
2022/05/28 08:29:05;;;;;;;14.90;4.22;;;15.80;98.70;;;;;;4948130;28;20054;-86
2022/05/28 08:31:31;;;;;;;26.02;4.45;;;15.70;99.70;;;;;;4965650;28;20493;-85
2022/05/28 08:33:57;;;;;;;13.27;2.88;;;15.50;99.90;;;;;;4959787;28;20061;-81
2022/05/28 08:36:24;;;;;;;14.35;2.80;;;15.40;99.90;;;;;;4981240;28;20046;-85
2022/05/28 08:38:51;;;;;;;11.65;2.55;;;15.10;99.90;;;;;;4987569;28;20047;-85
2022/05/28 08:41:21;;;;;;;19.13;2.95;;;14.90;99.90;;;;;;4966716;28;20047;-81
2022/05/28 08:44:13;;;;;;;18.95;3.70;;;14.70;99.90;;;;;;4988391;28;20058;-84
2022/05/28 08:46:43;;;;;;;14.70;2.70;;;14.60;99.90;;;;;;4962123;28;20047;-92
2022/05/28 08:49:12;;;;;;;20.50;3.13;;;14.60;99.90;;;;;;4977198;28;20054;-85
2022/05/28 08:51:44;;;;;;;16.75;3.28;;;14.70;99.90;;;;;;4960677;28;20055;-88
2022/05/28 08:54:13;;;;;;;16.70;3.45;;;14.80;99.90;;;;;;4981810;28;20376;-87
2022/05/28 08:56:40;;;;;;;18.13;3.25;;;15.00;99.90;;;;;;4979416;28;20137;-84
2022/05/28 08:59:16;;;;;;;14.75;2.90;;;15.20;99.90;;;;;;4976866;28;20065;-81
2022/05/28 09:01:44;;;;;;;16.73;5.22;;;15.30;99.90;;;;;;4974297;28;20081;-81
2022/05/28 09:04:17;;;;;;;18.98;2.92;;;15.20;99.90;;;;;;4975470;28;20051;-82
2022/05/28 09:06:54;;;;;;;18.55;3.80;;;15.10;99.90;;;;;;4977636;28;20086;-87
2022/05/28 09:09:40;;;;;;;16.35;3.22;;;15.50;99.90;;;;;;4975480;28;20541;-84
2022/05/28 09:12:14;;;;;;;19.48;3.42;;;15.30;99.60;;;;;;4977538;28;20074;-85
2022/05/28 09:14:41;;;;;;;17.00;3.70;;;15.20;99.30;;;;;;4975912;28;20097;-86
2022/05/28 09:17:29;;;;;;;17.23;2.75;;;15.40;99.80;;;;;;4976775;28;20143;-86
2022/05/28 09:19:59;;;;;;;16.23;3.67;;;15.90;99.90;;;;;;4981317;28;20486;-83
2022/05/28 09:22:26;;;;;;;24.75;4.03;;;16.30;99.60;;;;;;4981592;28;20122;-84
2022/05/28 09:24:52;;;;;;;13.65;3.40;;;16.60;99.20;;;;;;4957062;28;20065;-83
2022/05/28 09:27:30;;;;;;;13.07;2.92;;;16.70;98.30;;;;;;4975514;28;20054;-82
2022/05/28 09:30:36;;;;;;;14.70;2.60;;;16.80;97.70;;;;;;4975286;28;20074;-82
2022/05/28 09:33:22;;;;;;;15.52;3.47;;;16.80;97.60;;;;;;4977864;28;20145;-81
2022/05/28 09:36:01;;;;;;;15.13;2.70;;;16.70;97.60;;;;;;4960059;28;20066;-85
2022/05/28 09:38:53;;;;;;;16.60;2.75;;;16.90;97.60;;;;;;4944161;28;20101;-83
2022/05/28 09:41:34;;;;;;;16.88;4.65;;;16.80;97.40;;;;;;4957791;28;20051;-84
2022/05/28 09:44:15;;;;;;;19.20;3.13;;;16.60;96.50;;;;;;4974179;28;20046;-82
2022/05/28 09:46:44;;;;;;;13.20;3.05;;;16.60;97.20;;;;;;4961753;28;20053;-80
2022/05/28 09:49:12;;;;;;;13.30;2.22;;;16.60;97.60;;;;;;4974211;28;20054;-88
2022/05/28 09:51:38;;;;;;;8.63;2.10;;;16.90;96.00;;;;;;4958767;28;20065;-87
2022/05/28 09:54:23;;;;;;;15.20;2.65;;;17.10;95.10;;;;;;4983447;28;20115;-87
2022/05/28 09:57:00;;;;;;;12.02;2.70;;;17.10;94.40;;;;;;4962567;28;20130;-88
2022/05/28 09:59:45;;;;;;;14.90;2.20;;;17.10;93.70;;;;;;4979340;28;20054;-86
2022/05/28 10:02:26;;;;;;;13.68;2.20;;;17.40;92.70;;;;;;4978406;28;20054;-84
2022/05/28 10:05:16;;;;;;;8.57;2.35;;;17.50;93.40;;;;;;4960348;28;20537;-82
2022/05/28 10:07:53;;;;;;;13.60;1.95;;;17.60;93.70;;;;;;4960291;28;20050;-83
2022/05/28 10:10:31;;;;;;;11.88;2.38;;;17.80;93.30;;;;;;4987522;28;20058;-80
2022/05/28 10:13:15;;;;;;;12.20;2.63;;;18.10;92.10;;;;;;4964963;28;20117;-83
2022/05/28 10:15:46;;;;;;;12.82;2.58;;;18.40;92.90;;;;;;4959201;28;20050;-83
2022/05/28 10:18:18;;;;;;;12.48;2.10;;;18.10;94.00;;;;;;4976571;28;20122;-80
2022/05/28 10:20:55;;;;;;;11.63;2.67;;;17.80;93.70;;;;;;4976306;28;20069;-81
2022/05/28 10:23:21;;;;;;;13.13;2.72;;;18.00;93.80;;;;;;4979133;28;20062;-80
2022/05/28 10:25:50;;;;;;;12.07;2.58;;;18.20;93.20;;;;;;4960516;28;20047;-80
2022/05/28 10:28:49;;;;;;;9.77;2.13;;;18.10;92.80;;;;;;4959410;28;20094;-82
2022/05/28 10:31:29;;;;;;;11.82;2.50;;;18.50;93.10;;;;;;4912640;28;20054;-82
2022/05/28 10:33:56;;;;;;;14.68;2.70;;;18.80;92.90;;;;;;4979666;28;20058;-82
2022/05/28 10:36:31;;;;;;;17.08;2.80;;;18.30;93.20;;;;;;4979125;28;20047;-82
2022/05/28 10:39:11;;;;;;;16.05;2.30;;;18.20;93.30;;;;;;4965752;28;20050;-83
2022/05/28 10:41:39;;;;;;;8.80;2.38;;;18.40;93.00;;;;;;4959546;28;20093;-84
2022/05/28 10:44:06;;;;;;;14.45;3.45;;;18.40;92.00;;;;;;4960417;28;20058;-83
2022/05/28 10:46:49;;;;;;;13.52;2.03;;;18.50;92.50;;;;;;4976425;28;20061;-82
2022/05/28 10:49:40;;;;;;;11.70;2.15;;;19.00;93.20;;;;;;4958395;28;20054;-85
2022/05/28 10:52:15;;;;;;;12.40;3.08;;;19.20;92.30;;;;;;4975734;28;20051;-82
2022/05/28 10:54:59;;;;;;;11.40;2.30;;;19.30;92.90;;;;;;4975454;28;20156;-82
2022/05/28 10:57:43;;;;;;;14.27;2.23;;;18.80;91.30;;;;;;4958291;28;20062;-83
2022/05/28 11:00:19;;;;;;;12.75;2.63;;;18.20;92.20;;;;;;4976265;28;20057;-82
2022/05/28 11:03:23;;;;;;;12.68;2.08;;;17.80;93.10;;;;;;4977013;28;20059;-81
2022/05/28 11:06:24;;;;;;;13.88;3.00;;;17.50;94.20;;;;;;4961516;28;20039;-87
2022/05/28 11:09:26;;;;;;;14.90;2.83;;;17.40;95.40;;;;;;4963992;28;20054;-83
2022/05/28 11:12:03;;;;;;;14.70;3.35;;;17.30;96.20;;;;;;4978196;28;20050;-84
2022/05/28 11:14:38;;;;;;;13.18;2.53;;;17.50;96.10;;;;;;4978069;28;20055;-82
2022/05/28 11:17:22;;;;;;;12.88;2.95;;;17.40;95.80;;;;;;4984843;28;20050;-86
2022/05/28 11:20:19;;;;;;;18.08;3.03;;;17.70;94.40;;;;;;4976285;28;20450;-84
2022/05/28 11:23:22;;;;;;;15.02;2.97;;;17.90;95.20;;;;;;4975557;28;20888;-83
2022/05/28 11:25:53;;;;;;;12.20;2.22;;;18.30;94.50;;;;;;4975497;28;20067;-83
2022/05/28 11:29:00;;;;;;;15.68;2.47;;;18.50;94.30;;;;;;4959799;28;20053;-81
2022/05/28 11:31:41;;;;;;;16.13;2.75;;;18.60;93.10;;;;;;4978867;28;20070;-81
2022/05/28 11:34:36;;;;;;;13.38;3.08;;;18.70;93.20;;;;;;4958316;28;20129;-83
2022/05/28 11:37:20;;;;;;;16.65;2.70;;;18.60;93.40;;;;;;4953364;28;20054;-82
2022/05/28 11:40:06;;;;;;;18.88;2.85;;;18.20;92.90;;;;;;4958689;28;20783;-82
2022/05/28 11:42:58;;;;;;;14.25;2.90;;;18.10;94.00;;;;;;4975999;28;20055;-84
2022/05/28 11:45:40;;;;;;;16.00;3.45;;;18.00;93.80;;;;;;4977633;28;20051;-83
2022/05/28 11:48:18;;;;;;;12.77;2.67;;;18.10;93.80;;;;;;4981686;28;20058;-84
2022/05/28 11:51:29;;;;;;;11.43;2.75;;;18.40;93.30;;;;;;4975894;28;20502;-85
2022/05/28 11:54:19;;;;;;;13.25;2.35;;;18.40;92.50;;;;;;4961539;28;20096;-81
2022/05/28 11:56:49;;;;;;;20.25;3.30;;;18.40;91.90;;;;;;4979796;28;20051;-83
2022/05/28 11:59:20;;;;;;;10.52;2.25;;;18.30;92.60;;;;;;4963324;28;20462;-85
2022/05/28 12:01:59;;;;;;;11.95;2.53;;;18.20;92.50;;;;;;4980397;28;20051;-85
2022/05/28 12:04:25;;;;;;;12.93;3.17;;;18.70;92.40;;;;;;4981789;28;20051;-84
2022/05/28 12:07:08;;;;;;;13.32;2.92;;;18.90;92.20;;;;;;4952392;28;20055;-84
2022/05/28 12:09:42;;;;;;;10.02;2.50;;;19.00;90.90;;;;;;4978738;28;20057;-84
2022/05/28 12:12:08;;;;;;;10.05;2.50;;;19.00;90.80;;;;;;4957709;28;20514;-83
2022/05/28 12:14:39;;;;;;;17.42;2.58;;;19.30;91.90;;;;;;4974181;28;20063;-85
2022/05/28 12:17:17;;;;;;;10.23;1.90;;;19.00;92.10;;;;;;4958122;28;20043;-83
2022/05/28 12:20:06;;;;;;;17.10;3.22;;;18.50;91.00;;;;;;4978340;28;20058;-83
2022/05/28 12:22:53;;;;;;;13.07;2.97;;;18.40;91.50;;;;;;4972135;28;20051;-82
2022/05/28 12:25:22;;;;;;;12.32;2.58;;;18.20;92.10;;;;;;4975383;28;20058;-82
2022/05/28 12:27:56;;;;;;;10.27;2.50;;;18.20;92.30;;;;;;4973995;28;20051;-82
2022/05/28 12:30:48;;;;;;;8.75;2.00;;;18.60;92.50;;;;;;4974327;28;20065;-84
2022/05/28 12:33:32;;;;;;;8.00;2.13;;;19.30;92.20;;;;;;4974234;28;20593;-84
2022/05/28 12:36:17;;;;;;;14.15;3.33;;;19.50;91.20;;;;;;4960231;28;20062;-81
2022/05/28 12:38:43;;;;;;;;;;;19.60;91.20;;;;;;4979728;28;20093;-84
2022/05/28 12:41:25;;;;;;;15.95;2.72;;;19.70;87.30;;;;;;4979651;28;20366;-83
2022/05/28 12:44:03;;;;;;;9.15;2.22;;;19.90;90.70;;;;;;4974488;28;20051;-81
2022/05/28 12:46:59;;;;;;;11.20;1.75;;;20.20;86.10;;;;;;4977350;28;20050;-82
2022/05/28 12:49:35;;;;;;;10.75;2.13;;;20.20;86.40;;;;;;4982045;28;20101;-79
2022/05/28 12:52:27;;;;;;;7.38;1.85;;;20.40;87.90;;;;;;4977945;28;20062;-81
2022/05/28 12:55:16;;;;;;;11.07;2.22;;;20.60;77.50;;;;;;4976676;28;20062;-79
2022/05/28 12:57:42;;;;;;;11.70;2.65;;;20.90;81.50;;;;;;4958922;28;20380;-84
2022/05/28 13:00:12;;;;;;;11.57;2.10;;;20.60;76.30;;;;;;4959257;28;20059;-79
2022/05/28 13:02:45;;;;;;;9.65;1.90;;;20.60;75.90;;;;;;4956032;28;20055;-80
2022/05/28 13:05:16;;;;;;;13.50;2.47;;;20.70;73.20;;;;;;4973375;28;20055;-80
2022/05/28 13:07:52;;;;;;;11.77;1.90;;;20.10;75.70;;;;;;4973445;28;20050;-80